AirNav   Free Bose QuietComfort 20
 
 679 users online  

FL85 Baptist Hospital Heliport
Pensacola, Florida, USA

GOING TO PENSACOLA?


FAA INFORMATION EFFECTIVE 05 DECEMBER 2019

Location

FAA Identifier: FL85
Lat/Long: 30-25-45.7110N 087-13-51.8950W
30-25.761850N 087-13.864917W
30.4293642,-87.2310819
(estimated)
Elevation: 115 ft. / 35 m (estimated)
Variation: 01E (1985)
Time zone: UTC -6 (UTC -5 during Daylight Saving Time)
Zip code: 32501

Heliport Operations

Heliport use: Private use. Permission required prior to landing
Activation date: 01/1974
Control tower: no
ARTCC: JACKSONVILLE CENTER
FSS: GAINESVILLE FLIGHT SERVICE STATION
Attendance: CONTINUOUS
Wind indicator: yes
Segmented circle: no
Lights: SS-SR
Beacon: white-green-yellow (heliport)
24 HRS

Heliport Communications

WX ASOS at PNS (4 nm NE): PHONE 850-436-4799
WX ASOS at NDZ (20 nm NE): PHONE 850-623-7210
  • 122.825 USED INFREQUENTLY FOR COMMUNICATIONS.

Nearby radio navigation aids

VOR radial/distance  VOR name  Freq  Var
NUNr114/(6.0)SAUFLEY VOR108.8001E
CEWr227/37.1CRESTVIEW VORTAC115.9003E

 
NDB name  Hdg/Dist  Freq  Var  ID
PICKENS262/2.832602WPKZ .--. -.- --..

Heliport Services

Airframe service: NONE
Powerplant service: NONE

Runway Information

Helipad H1

Dimensions: 52 x 52 ft. / 16 x 16 m
Surface: concrete, in fair condition
Runway edge lights: PERI
Latitude: 30-25.761850N
Longitude: 087-13.864917W
Elevation: 115.0 ft.
Traffic pattern: rightleft
Markings: none, in fair condition

Heliport Ownership and Management from official FAA records

Ownership: Privately-owned
Owner: BAPTIST HOSPITAL
1000 W MORENO ST
PENSACOLA, FL 32501
Phone (850) 469-2304
Manager: DAVID KOVACH
1000 W MORENO ST
PENSACOLA, FL 32501
Phone (850) 469-2304

Heliport Operational Statistics

Aircraft based on the field: 2
Single engine airplanes: 1
Helicopters: 1
    

Additional Remarks

A52-H1 PLINES EAST OF FACILITY.
FOR CD CTC PENSACOLA APCH AT 850-266-6884 OR 850-266-6885.

Instrument Procedures

There are no published instrument procedures at FL85.

Some nearby airports with instrument procedures:

KPNS - Pensacola International Airport (4 nm NE)
KNPA - Pensacola Naval Air Station/Forrest Sherman Field (6 nm SW)
2R4 - Peter Prince Field Airport (18 nm NE)
KNDZ - Whiting Field Naval Air Station South (20 nm NE)
KNSE - Whiting Field Naval Air Station North (21 nm NE)
 
Loc | Ops | Rwys | IFR | FBO | Links
Com | Nav | Svcs | Stats | Notes

Continental Motors
AirBoss

 
Area around FL85 (Baptist Hospital Heliport)
 
Road maps at: MapQuest Bing Google
 
Aerial photo
No photo
 
Sectional chart

 
Airport distance calculator
Flying to Baptist Hospital Heliport? Find the distance to fly.

From to FL85

Sunrise and sunset
Times for 07-Dec-2019
 Local
(UTC-6)
 Zulu
(UTC)
Morning civil twilight06:0712:07
Sunrise06:3412:34
Sunset16:4722:47
Evening civil twilight17:1323:13

Current date and time
Zulu (UTC)  07-Dec-2019 09:46:16
Local (UTC-6)  07-Dec-2019 03:46:16
 
METAR
KPNS 
4nm NE 
070853Z AUTO 01006KT 10SM FEW033 14/14 A3012 RMK AO2 SLP201 T01440144 50001 $
KNPA 
7nm SW 
070856Z AUTO 36006KT 9SM BKN095 15/14 A3011 RMK AO2 SLP199 T01500144 50001
KNDZ 
20nm NE 
070449Z COR 36010KT 4SM 36010KT 4SM BR BKN002 OVC049 14/14 A3014 RMK T01440144 LAST
TAF
KPNS 
4nm NE 
070537Z 0706/0806 36008KT P6SM SCT007 OVC015 TEMPO 0706/0710 5SM BR OVC007 FM071800 01007KT P6SM OVC025
KNPA 
7nm SW 
0707/0807 VRB06KT 9999 OVC004 QNH3005INS TEMPO 0711/0714 6000 BR TEMPO 0714/0716 1400 FG T13/0712Z T18/0720Z COR 0735 FN00218
NOTAMs
Click for the latest NOTAMs
NOTAMs are issued by the DoD/FAA and will open in a separate window not controlled by AirNav.

 

 
 

Would you like to see your business listed on this page?

 If your business provides an interesting product or service to pilots, flight crews, aircraft, or users of the Baptist Hospital Heliport, you should consider listing it here.  To start the listing process, click on the button below
 
Add a business
 

Other Pages about Baptist Hospital Heliport

Update a link
 
Copyright © AirNav, LLC. All rights reserved. Privacy Policy  Contact